createdAt,value
2022-11-04T00:01:50.524Z,12.71
2022-11-04T00:04:19.458Z,12.66
2022-11-04T00:06:48.054Z,12.63
2022-11-04T00:09:17.920Z,12.63
2022-11-04T00:12:03.489Z,12.56
2022-11-04T00:14:31.110Z,12.51
2022-11-04T00:17:16.780Z,12.42
2022-11-04T00:20:02.185Z,12.33
2022-11-04T00:22:50.511Z,12.24
2022-11-04T00:25:35.999Z,12.16
2022-11-04T00:28:27.493Z,12.08
2022-11-04T00:30:55.375Z,11.97
2022-11-04T00:33:27.978Z,11.91
2022-11-04T00:35:56.552Z,11.86
2022-11-04T00:38:26.014Z,11.84
2022-11-04T00:40:53.333Z,11.76
2022-11-04T00:43:20.107Z,11.68
2022-11-04T00:45:47.224Z,11.65
2022-11-04T00:48:14.131Z,11.63
2022-11-04T00:50:42.093Z,11.59
2022-11-04T00:53:09.128Z,11.57
2022-11-04T00:55:37.393Z,11.57
2022-11-04T00:58:04.064Z,11.55
2022-11-04T01:00:30.788Z,11.52
2022-11-04T01:02:57.811Z,11.51
2022-11-04T01:05:24.472Z,11.52
2022-11-04T01:07:51.137Z,11.53
2022-11-04T01:10:18.251Z,11.55
2022-11-04T01:12:46.319Z,11.55
2022-11-04T01:15:12.952Z,11.58
2022-11-04T01:17:39.640Z,11.56
2022-11-04T01:20:07.552Z,11.55
2022-11-04T01:22:34.247Z,11.52
2022-11-04T01:25:01.005Z,11.51
2022-11-04T01:27:27.907Z,11.51
2022-11-04T01:29:56.068Z,11.51
2022-11-04T01:32:22.832Z,11.50
2022-11-04T01:34:49.530Z,11.51
2022-11-04T01:37:16.386Z,11.53
2022-11-04T01:39:43.713Z,11.53
2022-11-04T01:42:13.930Z,11.53
2022-11-04T01:44:50.328Z,11.57
2022-11-04T01:47:20.347Z,11.56
2022-11-04T01:49:50.736Z,11.57
2022-11-04T01:52:21.183Z,11.53
2022-11-04T01:54:50.704Z,11.50
2022-11-04T01:57:21.291Z,11.49
2022-11-04T01:59:49.821Z,11.49
2022-11-04T02:02:17.982Z,11.51
2022-11-04T02:04:45.764Z,11.49
2022-11-04T02:07:12.630Z,11.46
2022-11-04T02:09:41.308Z,11.45
2022-11-04T02:12:26.986Z,11.42
2022-11-04T02:14:55.132Z,11.39
2022-11-04T02:17:44.455Z,11.45
2022-11-04T02:20:27.799Z,11.46
2022-11-04T02:23:26.461Z,11.47
2022-11-04T02:26:31.573Z,11.44
2022-11-04T02:29:31.466Z,11.42
2022-11-04T02:32:06.535Z,11.40
2022-11-04T02:34:42.981Z,11.38
2022-11-04T02:37:16.283Z,11.41
2022-11-04T02:39:51.881Z,11.45
2022-11-04T02:42:27.444Z,11.47
2022-11-04T02:45:05.510Z,11.47
2022-11-04T02:47:36.427Z,11.47
2022-11-04T02:50:08.777Z,11.51
2022-11-04T02:52:47.236Z,11.56
2022-11-04T02:55:22.795Z,11.59
2022-11-04T02:57:54.576Z,11.64
2022-11-04T03:00:22.776Z,11.64
2022-11-04T03:02:55.493Z,11.61
2022-11-04T03:05:27.533Z,11.53
2022-11-04T03:07:58.617Z,11.43
2022-11-04T03:10:31.980Z,11.32
2022-11-04T03:13:02.767Z,11.25
2022-11-04T03:15:34.676Z,11.20
2022-11-04T03:18:08.704Z,11.16
2022-11-04T03:20:38.553Z,11.11
2022-11-04T03:23:05.539Z,11.10
2022-11-04T03:25:36.364Z,11.11
2022-11-04T03:28:14.963Z,11.15
2022-11-04T03:30:46.422Z,11.17
2022-11-04T03:33:22.119Z,11.18
2022-11-04T03:35:48.920Z,11.16
2022-11-04T03:38:15.723Z,11.16
2022-11-04T03:40:42.651Z,11.15
2022-11-04T03:43:14.206Z,11.13
2022-11-04T03:45:41.990Z,11.12
2022-11-04T03:48:10.289Z,11.09
2022-11-04T03:50:42.027Z,11.04
2022-11-04T03:53:10.862Z,10.97
2022-11-04T03:55:45.949Z,10.93
2022-11-04T03:58:27.313Z,10.91
2022-11-04T04:01:04.601Z,10.93
2022-11-04T04:03:38.272Z,10.91
2022-11-04T04:06:10.978Z,10.91
2022-11-04T04:08:42.963Z,10.88
2022-11-04T04:11:18.970Z,10.86
2022-11-04T04:13:53.573Z,10.86
2022-11-04T04:16:27.216Z,10.86
2022-11-04T04:18:59.353Z,10.87
2022-11-04T04:21:30.023Z,10.87
2022-11-04T04:24:17.606Z,10.88
2022-11-04T04:27:05.694Z,10.86
2022-11-04T04:29:32.785Z,10.84
2022-11-04T04:32:00.743Z,10.87
2022-11-04T04:34:30.803Z,10.92
2022-11-04T04:37:02.082Z,10.95
2022-11-04T04:39:54.011Z,10.94
2022-11-04T04:42:59.541Z,10.90
2022-11-04T04:45:32.915Z,10.90
2022-11-04T04:47:59.673Z,10.87
2022-11-04T04:50:31.594Z,10.90
2022-11-04T04:53:00.586Z,10.89
2022-11-04T04:55:27.273Z,10.87
2022-11-04T04:57:53.948Z,10.89
2022-11-04T05:00:21.250Z,10.91
2022-11-04T05:02:48.971Z,10.93
2022-11-04T05:07:49.568Z,10.95
2022-11-04T05:10:17.417Z,10.93
2022-11-04T05:13:03.237Z,10.94
2022-11-04T05:15:31.112Z,10.94
2022-11-04T05:17:59.403Z,10.95
2022-11-04T05:20:26.680Z,10.94
2022-11-04T05:22:55.535Z,10.96
2022-11-04T05:25:22.166Z,10.97
2022-11-04T05:27:48.822Z,11.01
2022-11-04T05:30:15.775Z,11.00
2022-11-04T05:32:42.434Z,11.00
2022-11-04T05:35:09.412Z,11.00
2022-11-04T05:37:36.101Z,10.98
2022-11-04T05:40:07.492Z,11.01
2022-11-04T05:42:34.238Z,11.04
2022-11-04T05:45:00.951Z,11.05
2022-11-04T05:47:28.525Z,11.02
2022-11-04T05:49:55.258Z,11.00
2022-11-04T05:52:22.633Z,11.01
2022-11-04T05:54:49.520Z,10.98
2022-11-04T05:57:17.759Z,10.94
2022-11-04T05:59:44.474Z,10.89
2022-11-04T06:02:11.405Z,10.89
2022-11-04T06:04:38.259Z,10.92
2022-11-04T06:07:05.038Z,10.96
2022-11-04T06:09:41.328Z,10.96
2022-11-04T06:12:09.954Z,10.95
2022-11-04T06:14:38.239Z,10.96
2022-11-04T06:17:05.027Z,10.95
2022-11-04T06:19:31.904Z,10.94
2022-11-04T06:21:58.726Z,10.94
2022-11-04T06:24:25.560Z,10.92
2022-11-04T06:26:52.420Z,10.88
2022-11-04T06:29:19.118Z,10.89
2022-11-04T06:31:47.288Z,10.90
2022-11-04T06:34:13.948Z,10.91
2022-11-04T06:36:40.671Z,10.93
2022-11-04T06:39:07.709Z,10.95
2022-11-04T06:41:34.603Z,10.95
2022-11-04T06:44:01.406Z,10.95
2022-11-04T06:46:34.566Z,10.93
2022-11-04T06:49:03.271Z,10.91
2022-11-04T06:51:30.008Z,10.91
2022-11-04T06:53:56.638Z,10.86
2022-11-04T06:56:23.739Z,10.85
2022-11-04T06:58:51.339Z,10.80
2022-11-04T07:01:22.190Z,10.77
2022-11-04T07:03:50.812Z,10.76
2022-11-04T07:06:19.809Z,10.68
2022-11-04T07:08:46.914Z,10.58
2022-11-04T07:11:14.173Z,10.47
2022-11-04T07:13:41.070Z,10.41
2022-11-04T07:16:09.026Z,10.36
2022-11-04T07:18:36.460Z,10.31
2022-11-04T07:21:08.763Z,10.25
2022-11-04T07:23:38.510Z,10.18
2022-11-04T07:26:07.587Z,10.17
2022-11-04T07:28:34.452Z,10.20
2022-11-04T07:31:03.475Z,10.24
2022-11-04T07:33:30.168Z,10.31
2022-11-04T07:35:58.151Z,10.36
2022-11-04T07:38:25.493Z,10.38
2022-11-04T07:40:53.724Z,10.32
2022-11-04T07:43:20.454Z,10.23
2022-11-04T07:45:47.179Z,10.18
2022-11-04T07:48:13.914Z,10.15
2022-11-04T07:50:40.714Z,10.12
2022-11-04T07:53:08.090Z,10.10
2022-11-04T07:55:42.888Z,10.09
2022-11-04T07:58:11.536Z,10.10
2022-11-04T08:00:38.223Z,10.12
2022-11-04T08:03:04.952Z,10.13
2022-11-04T08:05:31.610Z,10.13
2022-11-04T08:07:59.078Z,10.16
2022-11-04T08:10:25.897Z,10.16
2022-11-04T08:12:53.065Z,10.18
2022-11-04T08:15:21.281Z,10.20
2022-11-04T08:17:48.291Z,10.15
2022-11-04T08:20:15.767Z,10.13
2022-11-04T08:22:42.471Z,10.12
2022-11-04T08:25:13.324Z,10.06
2022-11-04T08:27:40.266Z,10.03
2022-11-04T08:30:09.520Z,9.99
2022-11-04T08:32:37.672Z,9.99
2022-11-04T08:35:05.056Z,9.99
2022-11-04T08:37:31.778Z,9.99
2022-11-04T08:39:58.474Z,10.03
2022-11-04T08:42:26.160Z,10.09
2022-11-04T08:44:52.936Z,10.13
2022-11-04T08:47:19.966Z,10.15
2022-11-04T08:49:48.011Z,10.18
2022-11-04T08:52:14.676Z,10.15
2022-11-04T08:54:41.520Z,10.16
2022-11-04T08:57:09.233Z,10.12
2022-11-04T08:59:36.425Z,10.13
2022-11-04T09:02:03.221Z,10.10
2022-11-04T09:04:29.875Z,10.07
2022-11-04T09:06:57.905Z,10.04
2022-11-04T09:09:24.561Z,9.93
2022-11-04T09:11:51.311Z,9.86
2022-11-04T09:14:18.134Z,9.86
2022-11-04T09:16:44.855Z,9.86
2022-11-04T09:19:11.736Z,9.84
2022-11-04T09:21:38.433Z,9.86
2022-11-04T09:24:07.831Z,9.87
2022-11-04T09:26:34.699Z,9.91
2022-11-04T09:29:01.782Z,9.89
2022-11-04T09:31:30.545Z,9.95
2022-11-04T09:33:57.639Z,10.00
2022-11-04T09:36:24.600Z,10.04
2022-11-04T09:38:51.797Z,10.06
2022-11-04T09:41:54.016Z,10.07
2022-11-04T09:44:27.869Z,10.10
2022-11-04T09:46:58.822Z,10.14
2022-11-04T09:49:29.818Z,10.16
2022-11-04T09:51:59.432Z,10.16
2022-11-04T09:54:32.558Z,10.16
2022-11-04T09:57:01.721Z,10.21
2022-11-04T09:59:33.080Z,10.25
2022-11-04T10:02:22.113Z,10.26
2022-11-04T10:05:02.305Z,10.19
2022-11-04T10:07:45.214Z,10.09
2022-11-04T10:10:20.651Z,10.02
2022-11-04T10:13:06.855Z,9.97
2022-11-04T10:16:03.438Z,9.94
2022-11-04T10:18:42.651Z,9.97
2022-11-04T10:21:21.686Z,9.98
2022-11-04T10:24:05.480Z,9.92
2022-11-04T10:26:39.964Z,9.87
2022-11-04T10:29:13.355Z,9.87
2022-11-04T10:31:44.964Z,9.85
2022-11-04T10:34:23.518Z,9.84
2022-11-04T10:36:51.012Z,9.85
2022-11-04T10:39:25.669Z,9.83
2022-11-04T10:41:52.764Z,9.81
2022-11-04T10:44:22.510Z,9.77
2022-11-04T10:47:02.524Z,9.72
2022-11-04T10:50:06.866Z,9.71
2022-11-04T10:52:33.696Z,9.71
2022-11-04T10:55:00.554Z,9.75
2022-11-04T10:57:28.046Z,9.73
2022-11-04T10:59:57.160Z,9.71
2022-11-04T11:02:45.709Z,9.73
2022-11-04T11:05:23.300Z,9.68
2022-11-04T11:07:52.252Z,9.64
2022-11-04T11:10:21.939Z,9.66
2022-11-04T11:12:54.255Z,9.62
2022-11-04T11:15:32.576Z,9.55
2022-11-04T11:18:18.329Z,9.54
2022-11-04T11:20:49.457Z,9.52
2022-11-04T11:23:37.566Z,9.56
2022-11-04T11:26:07.122Z,9.56
2022-11-04T11:28:38.146Z,9.55
2022-11-04T11:31:11.780Z,9.50
2022-11-04T11:33:47.120Z,9.41
2022-11-04T11:36:18.957Z,9.36
2022-11-04T11:38:59.012Z,9.33
2022-11-04T11:41:31.738Z,9.26
2022-11-04T11:44:06.102Z,9.22
2022-11-04T11:46:36.363Z,9.17
2022-11-04T11:49:05.594Z,9.13
2022-11-04T11:51:35.311Z,9.14
2022-11-04T11:54:23.160Z,9.18
2022-11-04T11:57:12.530Z,9.19
2022-11-04T12:02:46.003Z,9.11
2022-11-04T12:11:14.172Z,9.20
2022-11-04T12:13:46.249Z,9.26
2022-11-04T12:16:24.662Z,9.34
2022-11-04T12:19:17.188Z,9.41
2022-11-04T12:21:54.960Z,9.36
2022-11-04T12:24:34.197Z,9.37
2022-11-04T12:27:12.907Z,9.39
2022-11-04T12:29:51.409Z,9.44
2022-11-04T12:32:30.520Z,9.51
2022-11-04T12:35:12.212Z,9.57
2022-11-04T12:37:53.267Z,9.66
2022-11-04T12:40:22.106Z,9.72
2022-11-04T12:43:08.565Z,9.74
2022-11-04T12:45:46.433Z,9.70
2022-11-04T12:48:29.397Z,9.71
2022-11-04T12:51:05.853Z,9.69
2022-11-04T12:53:52.678Z,9.68
2022-11-04T12:56:22.239Z,9.64
2022-11-04T12:59:16.524Z,9.62
2022-11-04T13:01:48.162Z,9.62
2022-11-04T13:04:20.282Z,9.61
2022-11-04T13:06:51.591Z,9.60
2022-11-04T13:09:30.173Z,9.60
2022-11-04T13:12:05.837Z,9.62
2022-11-04T13:14:42.151Z,9.65
2022-11-04T13:17:15.513Z,9.68
2022-11-04T13:19:47.399Z,9.71
2022-11-04T13:22:19.480Z,9.66
2022-11-04T13:24:50.381Z,9.65
2022-11-04T13:27:21.389Z,9.61
2022-11-04T13:29:52.227Z,9.60
2022-11-04T13:32:27.965Z,9.58
2022-11-04T13:34:59.414Z,9.54
2022-11-04T13:37:31.083Z,9.52
2022-11-04T13:40:04.133Z,9.53
2022-11-04T13:42:54.430Z,9.52
2022-11-04T13:45:21.481Z,9.48
2022-11-04T13:47:51.061Z,9.50
2022-11-04T13:50:32.244Z,9.56
2022-11-04T13:52:59.958Z,9.57
2022-11-04T13:55:28.139Z,9.59
2022-11-04T13:57:58.199Z,9.61
2022-11-04T14:00:26.733Z,9.65
2022-11-04T14:02:54.596Z,9.64
2022-11-04T14:06:05.997Z,9.67
2022-11-04T14:08:33.424Z,9.68
2022-11-04T14:11:12.491Z,9.74
2022-11-04T14:14:03.774Z,9.77
2022-11-04T14:16:42.266Z,9.74
2022-11-04T14:19:55.789Z,9.76
2022-11-04T14:22:37.515Z,9.73
2022-11-04T14:25:22.625Z,9.71
2022-11-04T14:27:52.686Z,9.67
2022-11-04T14:30:36.790Z,9.63
2022-11-04T14:33:07.488Z,9.60
2022-11-04T14:35:35.954Z,9.58
2022-11-04T14:38:18.201Z,9.61
2022-11-04T14:40:47.822Z,9.59
2022-11-04T14:43:31.198Z,9.64
2022-11-04T14:46:00.122Z,9.65
2022-11-04T14:48:28.672Z,9.67
2022-11-04T14:50:56.979Z,9.67
2022-11-04T14:53:30.795Z,9.67
2022-11-04T14:56:15.017Z,9.72
2022-11-04T14:58:56.640Z,9.76
2022-11-04T15:01:26.524Z,9.80
2022-11-04T15:04:13.063Z,9.86
2022-11-04T15:06:54.043Z,9.92
2022-11-04T15:09:24.519Z,9.95
2022-11-04T15:12:11.364Z,9.93
2022-11-04T15:14:39.527Z,9.87
2022-11-04T15:17:06.331Z,9.85
2022-11-04T15:19:35.527Z,9.81
2022-11-04T15:22:04.566Z,9.76
2022-11-04T15:24:31.571Z,9.72
2022-11-04T15:27:03.205Z,9.67
2022-11-04T15:29:30.120Z,9.63
2022-11-04T15:32:00.523Z,9.59
2022-11-04T15:34:29.399Z,9.53
2022-11-04T15:36:58.810Z,9.50
2022-11-04T15:39:26.638Z,9.44
2022-11-04T15:42:16.303Z,9.41
2022-11-04T15:44:46.446Z,9.38
2022-11-04T15:47:25.944Z,9.39
2022-11-04T15:49:54.416Z,9.36
2022-11-04T15:52:23.395Z,9.33
2022-11-04T15:54:51.931Z,9.29
2022-11-04T15:57:21.207Z,9.24
2022-11-04T15:59:52.926Z,9.19
2022-11-04T16:02:26.783Z,9.18
2022-11-04T16:05:17.085Z,9.15
2022-11-04T16:07:45.286Z,9.13
2022-11-04T16:10:30.256Z,9.12
2022-11-04T16:12:59.256Z,9.12
2022-11-04T16:15:38.944Z,9.16
2022-11-04T16:18:21.574Z,9.13
2022-11-04T16:20:50.459Z,9.06
2022-11-04T16:23:20.844Z,8.97
2022-11-04T16:25:54.252Z,8.89
2022-11-04T16:28:21.348Z,8.82
2022-11-04T16:30:56.236Z,8.81
2022-11-04T16:33:24.297Z,8.75
2022-11-04T16:35:50.995Z,8.73
2022-11-04T16:38:17.737Z,8.70
2022-11-04T16:40:47.434Z,8.67
2022-11-04T16:43:17.531Z,8.67
2022-11-04T16:45:52.398Z,8.70
2022-11-04T16:48:21.884Z,8.68
2022-11-04T16:50:49.939Z,8.66
2022-11-04T16:53:16.646Z,8.69
2022-11-04T16:55:44.535Z,8.72
2022-11-04T16:58:17.297Z,8.73
2022-11-04T17:00:44.085Z,8.73
2022-11-04T17:03:22.136Z,8.73
2022-11-04T17:05:51.238Z,8.71
2022-11-04T17:08:18.328Z,8.71
2022-11-04T17:10:45.737Z,8.71
2022-11-04T17:13:13.005Z,8.68
2022-11-04T17:15:40.920Z,8.62
2022-11-04T17:18:07.640Z,8.60
2022-11-04T17:20:34.403Z,8.59
2022-11-04T17:23:02.451Z,8.63
2022-11-04T17:25:29.797Z,8.66
2022-11-04T17:27:56.507Z,8.69
2022-11-04T17:30:23.663Z,8.70
2022-11-04T17:32:50.915Z,8.70
2022-11-04T17:35:18.183Z,8.68
2022-11-04T17:37:44.904Z,8.66
2022-11-04T17:40:16.134Z,8.66
2022-11-04T17:43:02.634Z,8.65
2022-11-04T17:45:31.889Z,8.63
2022-11-04T17:48:02.971Z,8.63
2022-11-04T17:50:30.363Z,8.63
2022-11-04T17:52:57.041Z,8.62
2022-11-04T17:55:27.708Z,8.59
2022-11-04T17:57:55.367Z,8.57
2022-11-04T18:00:25.749Z,8.54
2022-11-04T18:02:52.518Z,8.49
2022-11-04T18:05:19.203Z,8.40
2022-11-04T18:07:45.765Z,8.30
2022-11-04T18:10:12.264Z,8.23
2022-11-04T18:12:41.562Z,8.18
2022-11-04T18:15:10.050Z,8.12
2022-11-04T18:17:37.005Z,8.09
2022-11-04T18:20:03.677Z,8.04
2022-11-04T18:22:30.320Z,7.97
2022-11-04T18:24:56.913Z,7.90
2022-11-04T18:27:23.483Z,7.85
2022-11-04T18:29:51.346Z,7.78
2022-11-04T18:32:17.893Z,7.73
2022-11-04T18:34:44.781Z,7.69
2022-11-04T18:37:11.440Z,7.66
2022-11-04T18:39:38.618Z,7.58
2022-11-04T18:42:05.888Z,7.57
2022-11-04T18:44:32.448Z,7.56
2022-11-04T18:47:00.333Z,7.53
2022-11-04T18:49:26.921Z,7.47
2022-11-04T18:51:53.503Z,7.43
2022-11-04T18:54:20.173Z,7.40
2022-11-04T18:56:46.887Z,7.34
2022-11-04T18:59:14.601Z,7.35
2022-11-04T19:01:42.029Z,7.35
2022-11-04T19:04:10.090Z,7.35
2022-11-04T19:06:39.562Z,7.34
2022-11-04T19:09:25.243Z,7.32
2022-11-04T19:12:13.537Z,7.32
2022-11-04T19:14:40.326Z,7.31
2022-11-04T19:17:06.840Z,7.23
2022-11-04T19:19:34.684Z,7.13
2022-11-04T19:22:01.234Z,6.98
2022-11-04T19:24:28.565Z,6.88
2022-11-04T19:26:55.157Z,6.76
2022-11-04T19:29:21.667Z,6.66
2022-11-04T19:31:49.193Z,6.54
2022-11-04T19:34:15.664Z,6.45
2022-11-04T19:36:43.535Z,6.37
2022-11-04T19:39:10.087Z,6.31
2022-11-04T19:41:55.317Z,6.29
2022-11-04T19:44:22.326Z,6.31
2022-11-04T19:46:49.328Z,6.36
2022-11-04T19:49:16.204Z,6.40
2022-11-04T19:51:44.498Z,6.45
2022-11-04T19:54:11.205Z,6.48
2022-11-04T19:56:37.811Z,6.42
2022-11-04T19:59:06.431Z,6.33
2022-11-04T20:01:34.804Z,6.24
2022-11-04T20:04:02.873Z,6.21
2022-11-04T20:06:29.510Z,6.21
2022-11-04T20:08:57.395Z,6.21
2022-11-04T20:11:23.940Z,6.23
2022-11-04T20:13:51.918Z,6.26
2022-11-04T20:16:19.960Z,6.23
2022-11-04T20:18:47.540Z,6.25
2022-11-04T20:21:14.677Z,6.25
2022-11-04T20:23:41.577Z,6.25
2022-11-04T20:26:12.876Z,6.22
2022-11-04T20:28:42.588Z,6.17
2022-11-04T20:31:13.463Z,6.09
2022-11-04T20:33:40.609Z,6.04
2022-11-04T20:36:07.842Z,5.96
2022-11-04T20:38:34.746Z,5.97
2022-11-04T20:41:05.734Z,5.99
2022-11-04T20:43:34.646Z,5.99
2022-11-04T20:46:03.856Z,5.97
2022-11-04T20:48:31.019Z,5.94
2022-11-04T20:50:57.670Z,5.95
2022-11-04T20:53:24.199Z,5.97
2022-11-04T20:55:50.738Z,6.01
2022-11-04T20:58:17.214Z,6.04
2022-11-04T21:00:45.834Z,6.03
2022-11-04T21:03:12.319Z,5.98
2022-11-04T21:05:38.893Z,5.94
2022-11-04T21:08:05.426Z,5.92
2022-11-04T21:10:31.938Z,5.93
2022-11-04T21:12:58.538Z,5.93
2022-11-04T21:15:44.163Z,5.93
2022-11-04T21:18:13.069Z,5.96
2022-11-04T21:20:41.772Z,5.93
2022-11-04T21:23:08.755Z,5.82
2022-11-04T21:25:39.085Z,5.68
2022-11-04T21:28:05.551Z,5.60
2022-11-04T21:30:33.426Z,5.50
2022-11-04T21:32:59.941Z,5.46
2022-11-04T21:35:27.958Z,5.46
2022-11-04T21:37:54.734Z,5.48
2022-11-04T21:40:21.256Z,5.52
2022-11-04T21:42:47.999Z,5.59
2022-11-04T21:45:14.674Z,5.64
2022-11-04T21:47:41.157Z,5.70
2022-11-04T21:50:08.073Z,5.77
2022-11-04T21:52:35.951Z,5.81
2022-11-04T21:55:02.704Z,5.84
2022-11-04T21:57:29.390Z,5.83
2022-11-04T21:59:56.002Z,5.82
2022-11-04T22:02:22.698Z,5.80
2022-11-04T22:04:49.780Z,5.75
2022-11-04T22:07:36.225Z,5.69
2022-11-04T22:10:04.350Z,5.66
2022-11-04T22:12:30.919Z,5.64
2022-11-04T22:14:57.487Z,5.63
2022-11-04T22:17:23.995Z,5.63
2022-11-04T22:19:50.529Z,5.67
2022-11-04T22:22:17.062Z,5.74
2022-11-04T22:24:43.506Z,5.80
2022-11-04T22:27:11.392Z,5.85
2022-11-04T22:29:37.901Z,5.90
2022-11-04T22:32:04.487Z,5.91
2022-11-04T22:34:31.007Z,5.94
2022-11-04T22:36:57.480Z,5.94
2022-11-04T22:39:24.138Z,5.94
2022-11-04T22:41:50.804Z,5.95
2022-11-04T22:44:18.897Z,5.93
2022-11-04T22:46:45.361Z,5.98
2022-11-04T22:49:14.796Z,6.02
2022-11-04T22:51:41.551Z,6.06
2022-11-04T22:54:09.726Z,6.12
2022-11-04T22:56:36.552Z,6.16
2022-11-04T22:59:03.122Z,6.16
2022-11-04T23:01:32.980Z,6.14
2022-11-04T23:03:59.945Z,6.15
2022-11-04T23:06:26.537Z,6.17
2022-11-04T23:08:59.709Z,6.17
2022-11-04T23:11:46.114Z,6.19
2022-11-04T23:14:32.307Z,6.22
2022-11-04T23:17:18.966Z,6.22
2022-11-04T23:19:45.590Z,6.26
2022-11-04T23:22:30.943Z,6.30
2022-11-04T23:25:06.630Z,6.35
2022-11-04T23:27:51.846Z,6.36
2022-11-04T23:30:21.489Z,6.38
2022-11-04T23:32:49.707Z,6.43
2022-11-04T23:35:35.005Z,6.45
2022-11-04T23:38:01.814Z,6.46
2022-11-04T23:40:29.190Z,6.48
2022-11-04T23:42:55.710Z,6.51
2022-11-04T23:45:41.023Z,6.55
2022-11-04T23:48:28.490Z,6.59
2022-11-04T23:51:14.227Z,6.60
2022-11-04T23:53:59.302Z,6.61
2022-11-04T23:56:46.584Z,6.62
2022-11-04T23:59:33.094Z,6.64
